Time;durP1;ratioP1;P1;durP2;ratioP2;P2;SDS_P1;SDS_P2;PMS_P1;PMS_P2;Temp;Humidity;BMP_temperature;BMP_pressure;BME280_temperature;BME280_humidity;BME280_pressure;Samples;Min_cycle;Max_cycle;Signal;HPM_P1;HPM_P2
2022/01/04 00:00:52;;;;;;;0.30;0.30;;;;;;;;;;5011341;28;20026;-80
2022/01/04 00:03:18;;;;;;;0.40;0.40;;;;;;;;;;5003351;28;20049;-80
2022/01/04 00:05:44;;;;;;;0.30;0.30;;;;;;;;;;5003754;28;20034;-80
2022/01/04 00:08:12;;;;;;;0.30;0.30;;;;;;;;;;5010470;28;20053;-80
2022/01/04 00:10:38;;;;;;;0.30;0.30;;;;;;;;;;5008438;28;20315;-79
2022/01/04 00:13:23;;;;;;;0.37;0.37;;;;;;;;;;5012493;28;20045;-79
2022/01/04 00:15:59;;;;;;;0.30;0.30;;;;;;;;;;5012738;28;20050;-79
2022/01/04 00:18:25;;;;;;;0.30;0.30;;;;;;;;;;5015619;28;20045;-79
2022/01/04 00:20:52;;;;;;;1.33;1.33;;;;;;;;;;5008129;28;20026;-78
2022/01/04 00:23:18;;;;;;;0.32;0.32;;;;;;;;;;4999825;28;20033;-79
2022/01/04 00:25:44;;;;;;;0.30;0.30;;;;;;;;;;5001410;28;20026;-78
2022/01/04 00:28:10;;;;;;;0.30;0.30;;;;;;;;;;5005349;28;20049;-79
2022/01/04 00:30:37;;;;;;;0.20;0.20;;;;;;;;;;5013519;28;20419;-79
2022/01/04 00:33:04;;;;;;;0.30;0.30;;;;;;;;;;5012849;28;20041;-77
2022/01/04 00:35:30;;;;;;;;;;;;;;;;;;5005181;28;20650;-79
2022/01/04 00:37:57;;;;;;;0.30;0.30;;;;;;;;;;5004857;28;19929;-79
2022/01/04 00:40:24;;;;;;;0.30;0.30;;;;;;;;;;5012229;28;20059;-80
2022/01/04 00:42:50;;;;;;;0.30;0.30;;;;;;;;;;5007736;28;20156;-79
2022/01/04 00:45:16;;;;;;;0.30;0.30;;;;;;;;;;5013249;28;20068;-79
2022/01/04 00:50:11;;;;;;;0.35;0.35;;;;;;;;;;5009837;28;20367;-79
2022/01/04 00:52:37;;;;;;;0.30;0.30;;;;;;;;;;5007831;28;20026;-79
2022/01/04 00:55:04;;;;;;;0.30;0.30;;;;;;;;;;5013619;28;20061;-79
2022/01/04 00:57:30;;;;;;;0.30;0.30;;;;;;;;;;5003984;28;20073;-79
2022/01/04 00:59:56;;;;;;;0.30;0.30;;;;;;;;;;5007328;28;20037;-79
2022/01/04 01:02:22;;;;;;;0.30;0.30;;;;;;;;;;5004372;28;20656;-79
2022/01/04 01:04:48;;;;;;;0.30;0.30;;;;;;;;;;5005297;28;20037;-80
2022/01/04 01:07:14;;;;;;;0.30;0.30;;;;;;;;;;5008849;28;20083;-79
2022/01/04 01:09:53;;;;;;;0.30;0.30;;;;;;;;;;5008388;28;20026;-79
2022/01/04 01:12:19;;;;;;;0.30;0.30;;;;;;;;;;5006191;28;20037;-79
2022/01/04 01:14:45;;;;;;;1.05;1.05;;;;;;;;;;5009387;28;20056;-79
2022/01/04 01:17:11;;;;;;;0.53;0.53;;;;;;;;;;4998540;28;20040;-79
2022/01/04 01:19:37;;;;;;;0.30;0.30;;;;;;;;;;5008051;28;20111;-79
2022/01/04 01:22:04;;;;;;;0.30;0.30;;;;;;;;;;5008967;28;20022;-78
2022/01/04 01:24:30;;;;;;;0.40;0.40;;;;;;;;;;5006726;28;20042;-79
2022/01/04 01:26:56;;;;;;;0.40;0.40;;;;;;;;;;5007357;28;20033;-77
2022/01/04 01:29:22;;;;;;;0.30;0.30;;;;;;;;;;5011907;28;20522;-79
2022/01/04 01:31:48;;;;;;;0.30;0.30;;;;;;;;;;5015939;28;20037;-79
2022/01/04 01:34:14;;;;;;;0.87;0.87;;;;;;;;;;5007054;28;20547;-79
2022/01/04 01:36:40;;;;;;;0.80;0.80;;;;;;;;;;4996819;28;20034;-79
2022/01/04 01:39:06;;;;;;;0.30;0.30;;;;;;;;;;5026189;28;20038;-79
2022/01/04 01:41:32;;;;;;;0.63;0.63;;;;;;;;;;5010816;28;20083;-78
2022/01/04 01:43:58;;;;;;;0.30;0.30;;;;;;;;;;5005685;28;20299;-79
2022/01/04 01:46:24;;;;;;;0.30;0.30;;;;;;;;;;4991757;28;20065;-77
2022/01/04 01:48:50;;;;;;;0.30;0.30;;;;;;;;;;5009412;28;20489;-77
2022/01/04 01:51:17;;;;;;;0.30;0.30;;;;;;;;;;5009655;28;20501;-79
2022/01/04 01:53:44;;;;;;;0.30;0.30;;;;;;;;;;5009034;28;20501;-79
2022/01/04 01:56:10;;;;;;;0.95;0.95;;;;;;;;;;5019450;28;20042;-79
2022/01/04 01:58:36;;;;;;;0.47;0.47;;;;;;;;;;5004952;28;20033;-79
2022/01/04 02:01:02;;;;;;;0.30;0.30;;;;;;;;;;5006537;28;20465;-79
2022/01/04 02:03:28;;;;;;;0.30;0.30;;;;;;;;;;4999224;28;20044;-79
2022/01/04 02:05:55;;;;;;;0.30;0.30;;;;;;;;;;5006478;28;20358;-77
2022/01/04 02:08:21;;;;;;;0.30;0.30;;;;;;;;;;5009040;28;20033;-79
2022/01/04 02:10:48;;;;;;;0.30;0.30;;;;;;;;;;5005533;28;20537;-79
2022/01/04 02:13:14;;;;;;;0.30;0.30;;;;;;;;;;5002522;28;20045;-79
2022/01/04 02:15:40;;;;;;;0.37;0.37;;;;;;;;;;5005024;28;20866;-79
2022/01/04 02:18:06;;;;;;;1.47;1.47;;;;;;;;;;5003942;28;20417;-79
2022/01/04 02:20:32;;;;;;;0.30;0.30;;;;;;;;;;5003892;28;20939;-79
2022/01/04 02:22:58;;;;;;;0.30;0.30;;;;;;;;;;5003986;28;20032;-80
2022/01/04 02:25:24;;;;;;;0.30;0.30;;;;;;;;;;5007887;28;20277;-79
2022/01/04 02:27:51;;;;;;;0.30;0.30;;;;;;;;;;5012344;28;20028;-80
2022/01/04 02:30:17;;;;;;;;;;;;;;;;;;5003848;28;20549;-80
2022/01/04 02:32:44;;;;;;;0.30;0.30;;;;;;;;;;5009972;28;19966;-80
2022/01/04 02:35:10;;;;;;;1.25;1.25;;;;;;;;;;5009344;28;20037;-79
2022/01/04 02:37:36;;;;;;;0.75;0.75;;;;;;;;;;5010365;28;20029;-78
2022/01/04 02:40:03;;;;;;;0.40;0.40;;;;;;;;;;5008501;28;20037;-79
2022/01/04 02:42:29;;;;;;;0.30;0.30;;;;;;;;;;5007599;28;20104;-78
2022/01/04 02:44:55;;;;;;;0.40;0.40;;;;;;;;;;5009091;28;20041;-79
2022/01/04 02:47:21;;;;;;;0.30;0.30;;;;;;;;;;5009220;28;20413;-79
2022/01/04 02:49:47;;;;;;;0.30;0.30;;;;;;;;;;5007130;28;20285;-79
2022/01/04 02:52:13;;;;;;;0.30;0.30;;;;;;;;;;5005447;28;20053;-79
2022/01/04 02:54:39;;;;;;;1.13;1.13;;;;;;;;;;5007421;28;20517;-77
2022/01/04 02:57:06;;;;;;;0.53;0.53;;;;;;;;;;5006425;28;20044;-77
2022/01/04 02:59:32;;;;;;;0.30;0.30;;;;;;;;;;5010257;28;20627;-78
2022/01/04 03:01:58;;;;;;;0.30;0.30;;;;;;;;;;5008886;28;20048;-79
2022/01/04 03:04:24;;;;;;;0.30;0.30;;;;;;;;;;5005920;28;20164;-80
2022/01/04 03:06:50;;;;;;;0.30;0.30;;;;;;;;;;5004596;28;20507;-79
2022/01/04 03:09:16;;;;;;;0.30;0.30;;;;;;;;;;5010211;28;20029;-79
2022/01/04 03:11:42;;;;;;;1.95;1.95;;;;;;;;;;5010797;28;20034;-79
2022/01/04 03:14:08;;;;;;;0.33;0.33;;;;;;;;;;5006957;28;20104;-80
2022/01/04 03:16:35;;;;;;;0.30;0.30;;;;;;;;;;5003821;28;20082;-79
2022/01/04 03:19:07;;;;;;;0.30;0.30;;;;;;;;;;5005661;28;20045;-76
2022/01/04 03:21:35;;;;;;;0.30;0.30;;;;;;;;;;4986989;28;20030;-78
2022/01/04 03:24:01;;;;;;;0.40;0.40;;;;;;;;;;5010543;28;20089;-78
2022/01/04 03:26:27;;;;;;;0.40;0.40;;;;;;;;;;5006677;28;20056;-79
2022/01/04 03:28:53;;;;;;;0.33;0.33;;;;;;;;;;5010262;28;20042;-77
2022/01/04 03:31:19;;;;;;;0.30;0.30;;;;;;;;;;5008615;28;20033;-78
2022/01/04 03:33:45;;;;;;;0.43;0.43;;;;;;;;;;5008379;28;20313;-79
2022/01/04 03:36:12;;;;;;;0.20;0.20;;;;;;;;;;5011726;28;20030;-79
2022/01/04 03:43:40;;;;;;;0.33;0.33;;;;;;;;;;5152439;22;20039;-84
2022/01/04 03:46:07;;;;;;;0.30;0.30;;;;;;;;;;4972474;28;20041;-85
2022/01/04 03:48:33;;;;;;;0.30;0.30;;;;;;;;;;4972708;28;20110;-85
2022/01/04 03:50:59;;;;;;;2.95;2.85;;;;;;;;;;4975326;28;20043;-84
2022/01/04 03:53:25;;;;;;;0.33;0.33;;;;;;;;;;4995541;28;20026;-86
2022/01/04 03:55:51;;;;;;;0.40;0.40;;;;;;;;;;4977778;28;20054;-85
2022/01/04 03:58:17;;;;;;;0.30;0.30;;;;;;;;;;4976263;28;20498;-85
2022/01/04 04:00:43;;;;;;;0.30;0.30;;;;;;;;;;4974912;28;20032;-84
2022/01/04 04:03:09;;;;;;;0.63;0.63;;;;;;;;;;4972022;28;20042;-86
2022/01/04 04:05:35;;;;;;;0.50;0.50;;;;;;;;;;4971504;28;20023;-85
2022/01/04 04:08:01;;;;;;;0.80;0.80;;;;;;;;;;4976519;28;20089;-85
2022/01/04 04:10:27;;;;;;;0.20;0.20;;;;;;;;;;4972384;28;20084;-84
2022/01/04 04:12:53;;;;;;;0.33;0.33;;;;;;;;;;4974489;28;20030;-85
2022/01/04 04:15:19;;;;;;;0.30;0.30;;;;;;;;;;4994732;28;20034;-86
2022/01/04 04:17:46;;;;;;;0.30;0.30;;;;;;;;;;4975702;28;20486;-86
2022/01/04 04:20:12;;;;;;;0.30;0.30;;;;;;;;;;4973880;28;20439;-85
2022/01/04 04:22:38;;;;;;;0.30;0.30;;;;;;;;;;4973523;28;20046;-84
2022/01/04 04:25:04;;;;;;;0.30;0.30;;;;;;;;;;4974509;28;21206;-85
2022/01/04 04:27:30;;;;;;;0.30;0.30;;;;;;;;;;4981468;28;20033;-85
2022/01/04 04:29:56;;;;;;;0.30;0.30;;;;;;;;;;4974312;28;20404;-85
2022/01/04 04:32:22;;;;;;;0.90;0.90;;;;;;;;;;4981162;28;20509;-86
2022/01/04 04:34:48;;;;;;;0.20;0.20;;;;;;;;;;4974624;28;20027;-84
2022/01/04 04:37:14;;;;;;;0.32;0.32;;;;;;;;;;4977815;28;20033;-85
2022/01/04 04:39:40;;;;;;;0.30;0.30;;;;;;;;;;4975118;28;20050;-85
2022/01/04 04:42:07;;;;;;;0.37;0.37;;;;;;;;;;4975682;28;20093;-85
2022/01/04 04:44:33;;;;;;;0.32;0.32;;;;;;;;;;4977669;28;20399;-84
2022/01/04 04:46:59;;;;;;;0.93;0.93;;;;;;;;;;4969903;28;20491;-85
2022/01/04 04:49:25;;;;;;;0.30;0.30;;;;;;;;;;4971772;28;20030;-86
2022/01/04 04:51:51;;;;;;;0.30;0.30;;;;;;;;;;4976947;28;20022;-85
2022/01/04 04:54:17;;;;;;;0.30;0.30;;;;;;;;;;4971028;28;20030;-86
2022/01/04 04:56:43;;;;;;;0.30;0.30;;;;;;;;;;4970665;28;20697;-84
2022/01/04 04:59:10;;;;;;;0.30;0.30;;;;;;;;;;4974554;28;20046;-84
2022/01/04 05:01:36;;;;;;;1.60;1.60;;;;;;;;;;4979512;28;20476;-85
2022/01/04 05:04:03;;;;;;;0.90;0.90;;;;;;;;;;4977756;28;20034;-85
2022/01/04 05:06:29;;;;;;;;;;;;;;;;;;4993700;28;20407;-85
2022/01/04 05:08:55;;;;;;;0.22;0.22;;;;;;;;;;4969396;28;19914;-86
2022/01/04 05:11:21;;;;;;;0.30;0.30;;;;;;;;;;4971216;28;20031;-85
2022/01/04 05:13:47;;;;;;;0.30;0.30;;;;;;;;;;4971092;28;20503;-85
2022/01/04 05:16:13;;;;;;;0.30;0.30;;;;;;;;;;4975501;28;20372;-86
2022/01/04 05:18:39;;;;;;;0.30;0.30;;;;;;;;;;4972061;28;20038;-86
2022/01/04 05:21:05;;;;;;;0.52;0.52;;;;;;;;;;4969923;28;20026;-86
2022/01/04 05:23:32;;;;;;;1.05;1.05;;;;;;;;;;4977359;28;20041;-83
2022/01/04 05:25:58;;;;;;;0.30;0.30;;;;;;;;;;4973985;28;20107;-85
2022/01/04 05:28:24;;;;;;;0.30;0.30;;;;;;;;;;4969874;28;20065;-85
2022/01/04 05:30:50;;;;;;;0.20;0.20;;;;;;;;;;4971057;28;20086;-84
2022/01/04 05:33:17;;;;;;;0.28;0.28;;;;;;;;;;4972403;28;20038;-85
2022/01/04 05:35:43;;;;;;;0.30;0.30;;;;;;;;;;4973304;28;20034;-83
2022/01/04 05:38:09;;;;;;;0.20;0.20;;;;;;;;;;4969928;28;20046;-84
2022/01/04 05:40:35;;;;;;;0.43;0.43;;;;;;;;;;4974952;28;20034;-83
2022/01/04 05:43:01;;;;;;;1.50;1.50;;;;;;;;;;4971473;28;20065;-84
2022/01/04 05:45:28;;;;;;;0.20;0.20;;;;;;;;;;4971380;28;20289;-84
2022/01/04 05:47:54;;;;;;;0.20;0.20;;;;;;;;;;4969492;28;20346;-84
2022/01/04 05:50:20;;;;;;;0.30;0.30;;;;;;;;;;4976679;28;20046;-83
2022/01/04 05:52:46;;;;;;;0.30;0.30;;;;;;;;;;4995945;28;20285;-83
2022/01/04 05:55:12;;;;;;;0.25;0.25;;;;;;;;;;4982769;28;20038;-83
2022/01/04 05:57:38;;;;;;;0.20;0.20;;;;;;;;;;4979678;28;20510;-83
2022/01/04 06:00:05;;;;;;;1.63;1.63;;;;;;;;;;4977289;28;20034;-83
2022/01/04 06:02:31;;;;;;;;;;;;;;;;;;4965746;28;20110;-83
2022/01/04 06:04:57;;;;;;;0.32;0.32;;;;;;;;;;4969829;28;20005;-84
2022/01/04 06:07:23;;;;;;;0.32;0.32;;;;;;;;;;4977299;28;20584;-84
2022/01/04 06:09:52;;;;;;;0.20;0.20;;;;;;;;;;4975315;28;20454;-83
2022/01/04 06:15:04;;;;;;;0.20;0.20;;;;;;;;;;4970364;28;20558;-83
2022/01/04 06:17:32;;;;;;;0.30;0.30;;;;;;;;;;4975375;28;20038;-83
2022/01/04 06:19:59;;;;;;;1.02;1.02;;;;;;;;;;4967178;28;20038;-84
2022/01/04 06:22:25;;;;;;;1.08;1.08;;;;;;;;;;4965966;28;20364;-85
2022/01/04 06:24:52;;;;;;;0.40;0.40;;;;;;;;;;4985149;28;20611;-84
2022/01/04 06:27:18;;;;;;;0.30;0.30;;;;;;;;;;4970117;28;20451;-83
2022/01/04 06:29:45;;;;;;;0.30;0.30;;;;;;;;;;4991770;28;20035;-83
2022/01/04 06:32:12;;;;;;;0.70;0.70;;;;;;;;;;4976173;28;20041;-83
2022/01/04 06:34:39;;;;;;;0.30;0.30;;;;;;;;;;4981365;28;20034;-83
2022/01/04 06:37:04;;;;;;;;;;;;;;;;;;4968910;28;20398;-84
2022/01/04 06:39:31;;;;;;;1.83;1.83;;;;;;;;;;4995465;28;20037;-89
2022/01/04 06:41:57;;;;;;;0.30;0.30;;;;;;;;;;4978974;28;20030;-85
2022/01/04 06:44:23;;;;;;;0.40;0.40;;;;;;;;;;4975877;28;20137;-83
2022/01/04 06:46:49;;;;;;;1.60;1.60;;;;;;;;;;4968127;28;20495;-85
2022/01/04 06:49:16;;;;;;;2.60;2.53;;;;;;;;;;4977543;28;20129;-85
2022/01/04 06:51:43;;;;;;;49.47;46.25;;;;;;;;;;4981999;28;20041;-85
2022/01/04 06:54:10;;;;;;;10.20;9.73;;;;;;;;;;4979467;28;20438;-85
2022/01/04 06:56:36;;;;;;;6.78;6.47;;;;;;;;;;4980850;28;20034;-85
2022/01/04 06:59:03;;;;;;;0.40;0.40;;;;;;;;;;4976820;28;20049;-85
2022/01/04 07:01:29;;;;;;;1.13;1.13;;;;;;;;;;4977801;28;20034;-86
2022/01/04 07:03:55;;;;;;;1.85;1.85;;;;;;;;;;4997956;28;20022;-85
2022/01/04 07:06:22;;;;;;;2.95;2.85;;;;;;;;;;4980794;28;20050;-84
2022/01/04 07:08:48;;;;;;;0.50;0.50;;;;;;;;;;4982871;28;20030;-85
2022/01/04 07:11:14;;;;;;;0.30;0.30;;;;;;;;;;4980632;28;20093;-85
2022/01/04 07:13:40;;;;;;;0.88;0.88;;;;;;;;;;4980637;28;20030;-85
2022/01/04 07:16:07;;;;;;;0.30;0.30;;;;;;;;;;4980596;28;20553;-85
2022/01/04 07:18:33;;;;;;;0.20;0.20;;;;;;;;;;4982065;28;20041;-86
2022/01/04 07:20:59;;;;;;;3.00;1.23;;;;;;;;;;4978827;28;20050;-85
2022/01/04 07:23:25;;;;;;;0.85;0.85;;;;;;;;;;4976365;28;20445;-84
2022/01/04 07:25:51;;;;;;;0.30;0.30;;;;;;;;;;4985315;28;20038;-87
2022/01/04 07:28:18;;;;;;;0.20;0.20;;;;;;;;;;4985139;28;20670;-86
2022/01/04 07:30:44;;;;;;;0.38;0.38;;;;;;;;;;4984920;28;20041;-86
2022/01/04 07:33:10;;;;;;;0.43;0.43;;;;;;;;;;4986335;28;20041;-86
2022/01/04 07:35:36;;;;;;;0.60;0.60;;;;;;;;;;4986496;28;20034;-87
2022/01/04 07:38:03;;;;;;;1.67;1.67;;;;;;;;;;4983145;28;20066;-87
2022/01/04 07:40:29;;;;;;;1.48;1.48;;;;;;;;;;4980971;28;20046;-88
2022/01/04 07:42:59;;;;;;;0.98;0.98;;;;;;;;;;4984447;28;20042;-86
2022/01/04 07:45:27;;;;;;;0.50;0.50;;;;;;;;;;4983548;28;20165;-86
2022/01/04 07:47:53;;;;;;;0.20;0.20;;;;;;;;;;4986112;28;20033;-85
2022/01/04 07:50:19;;;;;;;0.20;0.20;;;;;;;;;;4979259;28;20072;-85
2022/01/04 07:52:45;;;;;;;0.20;0.20;;;;;;;;;;4978202;28;20026;-84
2022/01/04 07:55:11;;;;;;;0.20;0.20;;;;;;;;;;4986967;28;20103;-84
2022/01/04 07:57:40;;;;;;;0.20;0.20;;;;;;;;;;4984948;28;20081;-85
2022/01/04 08:00:06;;;;;;;0.20;0.20;;;;;;;;;;4983987;28;20034;-85
2022/01/04 08:02:32;;;;;;;0.30;0.30;;;;;;;;;;4983975;28;20038;-85
2022/01/04 08:04:58;;;;;;;0.87;0.87;;;;;;;;;;4984050;28;20510;-85
2022/01/04 08:07:24;;;;;;;0.80;0.80;;;;;;;;;;4985620;28;20033;-85
2022/01/04 08:09:51;;;;;;;0.20;0.20;;;;;;;;;;4985463;28;20049;-84
2022/01/04 08:12:18;;;;;;;0.20;0.20;;;;;;;;;;4984387;28;20035;-85
2022/01/04 08:14:44;;;;;;;0.20;0.20;;;;;;;;;;4985219;28;20045;-86
2022/01/04 08:17:10;;;;;;;;;;;;;;;;;;4984178;28;20097;-85
2022/01/04 08:19:36;;;;;;;0.50;0.50;;;;;;;;;;4982747;28;20428;-85
2022/01/04 08:22:03;;;;;;;0.20;0.20;;;;;;;;;;4986489;28;20506;-85
2022/01/04 08:24:29;;;;;;;0.20;0.20;;;;;;;;;;4983722;28;20160;-85
2022/01/04 08:26:55;;;;;;;0.20;0.20;;;;;;;;;;4985203;28;20438;-84
2022/01/04 08:29:21;;;;;;;0.57;0.57;;;;;;;;;;4982504;28;21006;-85
2022/01/04 08:31:47;;;;;;;0.82;0.82;;;;;;;;;;4983148;28;20114;-84
2022/01/04 08:34:13;;;;;;;0.20;0.20;;;;;;;;;;4986108;28;20117;-85
2022/01/04 08:36:39;;;;;;;0.20;0.20;;;;;;;;;;4985429;28;20052;-85
2022/01/04 08:39:05;;;;;;;0.20;0.20;;;;;;;;;;4983157;28;20104;-84
2022/01/04 08:41:32;;;;;;;0.87;0.87;;;;;;;;;;4984385;28;20061;-85
2022/01/04 08:43:58;;;;;;;0.68;0.68;;;;;;;;;;4983162;28;20054;-86
2022/01/04 08:46:24;;;;;;;0.20;0.20;;;;;;;;;;4985456;28;20041;-86
2022/01/04 08:48:50;;;;;;;0.20;0.20;;;;;;;;;;4999379;28;20026;-85
2022/01/04 08:51:16;;;;;;;0.30;0.30;;;;;;;;;;4984464;28;20042;-85
2022/01/04 08:53:42;;;;;;;3.50;3.40;;;;;;;;;;4983044;28;20031;-85
2022/01/04 08:56:08;;;;;;;0.85;0.85;;;;;;;;;;4979145;28;20285;-85
2022/01/04 08:58:35;;;;;;;0.20;0.20;;;;;;;;;;4983300;28;20085;-85
2022/01/04 09:01:02;;;;;;;0.20;0.20;;;;;;;;;;4985884;28;20034;-85
2022/01/04 09:03:30;;;;;;;0.70;0.68;;;;;;;;;;4983233;28;20285;-86
2022/01/04 09:05:56;;;;;;;1.05;1.05;;;;;;;;;;4982757;28;20073;-85
2022/01/04 09:08:22;;;;;;;0.30;0.30;;;;;;;;;;4982838;28;20030;-85
2022/01/04 09:10:48;;;;;;;0.20;0.20;;;;;;;;;;4982899;28;20121;-86
2022/01/04 09:13:18;;;;;;;0.17;0.17;;;;;;;;;;4985497;28;20069;-84
2022/01/04 09:18:46;;;;;;;0.15;0.15;;;;;;;;;;4982725;28;20065;-86
2022/01/04 09:21:16;;;;;;;0.10;0.10;;;;;;;;;;4984245;28;20034;-85
2022/01/04 09:23:45;;;;;;;0.10;0.10;;;;;;;;;;4983105;28;20103;-85
2022/01/04 09:26:11;;;;;;;0.10;0.10;;;;;;;;;;4982828;28;20092;-85
2022/01/04 09:28:37;;;;;;;0.10;0.10;;;;;;;;;;4967547;28;20053;-85
2022/01/04 09:31:04;;;;;;;0.10;0.10;;;;;;;;;;4985628;28;20037;-84
2022/01/04 09:33:30;;;;;;;0.03;0.03;;;;;;;;;;4982159;28;20877;-86
2022/01/04 09:35:56;;;;;;;0.10;0.10;;;;;;;;;;4982786;28;20951;-86
2022/01/04 09:38:23;;;;;;;0.00;0.00;;;;;;;;;;4984557;28;20034;-85
2022/01/04 09:40:49;;;;;;;0.10;0.10;;;;;;;;;;4983084;28;20053;-85
2022/01/04 09:43:16;;;;;;;0.10;0.10;;;;;;;;;;4984680;28;20046;-85
2022/01/04 09:45:42;;;;;;;0.00;0.00;;;;;;;;;;4999229;28;20502;-85
2022/01/04 09:48:09;;;;;;;0.10;0.10;;;;;;;;;;4996639;28;20030;-85
2022/01/04 09:50:36;;;;;;;0.03;0.03;;;;;;;;;;4979487;28;20043;-85
2022/01/04 09:53:02;;;;;;;0.10;0.10;;;;;;;;;;4971112;28;20040;-86
2022/01/04 09:55:28;;;;;;;0.28;0.28;;;;;;;;;;4983748;28;20065;-85
2022/01/04 09:57:54;;;;;;;0.10;0.10;;;;;;;;;;4983628;28;20461;-85
2022/01/04 10:00:20;;;;;;;0.10;0.10;;;;;;;;;;4981460;28;20031;-85
2022/01/04 10:02:52;;;;;;;0.13;0.13;;;;;;;;;;4982694;28;20084;-86
2022/01/04 10:05:22;;;;;;;0.45;0.30;;;;;;;;;;4982609;28;20057;-85
2022/01/04 10:07:50;;;;;;;0.10;0.10;;;;;;;;;;4983242;28;20133;-84
2022/01/04 10:10:17;;;;;;;0.10;0.10;;;;;;;;;;4983940;28;20141;-85
2022/01/04 10:12:53;;;;;;;0.52;0.52;;;;;;;;;;4998688;28;20039;-85
2022/01/04 10:15:19;;;;;;;;;;;;;;;;;;4981887;28;20041;-86
2022/01/04 10:17:45;;;;;;;0.15;0.15;;;;;;;;;;4977314;28;19913;-85
2022/01/04 10:20:11;;;;;;;0.10;0.10;;;;;;;;;;4981583;28;20717;-85
2022/01/04 10:22:39;;;;;;;0.03;0.03;;;;;;;;;;4966189;28;20054;-85
2022/01/04 10:25:05;;;;;;;0.10;0.10;;;;;;;;;;4995430;28;20037;-85
2022/01/04 10:27:31;;;;;;;0.10;0.10;;;;;;;;;;4995786;28;20045;-86
2022/01/04 10:30:13;;;;;;;0.10;0.10;;;;;;;;;;4982475;28;20035;-85
2022/01/04 10:32:45;;;;;;;0.10;0.10;;;;;;;;;;4980801;28;20030;-85
2022/01/04 10:35:11;;;;;;;0.10;0.10;;;;;;;;;;4981072;28;20030;-84
2022/01/04 10:37:39;;;;;;;0.00;0.00;;;;;;;;;;4981543;28;20034;-85
2022/01/04 10:40:06;;;;;;;0.00;0.00;;;;;;;;;;4984884;28;20038;-85
2022/01/04 10:42:32;;;;;;;0.17;0.17;;;;;;;;;;4980791;28;20037;-85
2022/01/04 10:44:58;;;;;;;0.47;0.47;;;;;;;;;;4981067;28;20230;-85
2022/01/04 10:47:29;;;;;;;0.40;0.40;;;;;;;;;;4981595;28;20562;-86
2022/01/04 10:49:56;;;;;;;0.10;0.10;;;;;;;;;;4982365;28;20023;-85
2022/01/04 10:52:30;;;;;;;0.05;0.05;;;;;;;;;;4982969;28;20035;-85
2022/01/04 10:55:12;;;;;;;0.00;0.00;;;;;;;;;;4983147;28;20065;-85
2022/01/04 10:57:38;;;;;;;0.20;0.20;;;;;;;;;;4981388;28;20095;-86
2022/01/04 11:00:20;;;;;;;0.40;0.40;;;;;;;;;;4980695;28;20046;-85
2022/01/04 11:02:46;;;;;;;0.10;0.10;;;;;;;;;;4980489;28;20030;-85
2022/01/04 11:05:12;;;;;;;0.10;0.10;;;;;;;;;;4980967;28;20394;-85
2022/01/04 11:07:56;;;;;;;0.10;0.10;;;;;;;;;;4981302;28;20107;-86
2022/01/04 11:10:22;;;;;;;0.30;0.30;;;;;;;;;;4980947;28;20033;-86
2022/01/04 11:12:49;;;;;;;0.20;0.20;;;;;;;;;;4996817;28;20034;-85
2022/01/04 11:15:14;;;;;;;;;;;;;;;;;;4981216;28;20402;-86
2022/01/04 11:17:41;;;;;;;0.00;0.00;;;;;;;;;;4982075;28;19917;-86
2022/01/04 11:20:07;;;;;;;0.10;0.10;;;;;;;;;;4981169;28;20030;-86
2022/01/04 11:22:35;;;;;;;4.75;4.55;;;;;;;;;;4981815;28;20027;-86
2022/01/04 11:25:02;;;;;;;0.68;0.68;;;;;;;;;;4983455;28;20038;-85
2022/01/04 11:27:30;;;;;;;22.73;21.50;;;;;;;;;;4980697;28;20084;-85
2022/01/04 11:29:58;;;;;;;4.97;4.78;;;;;;;;;;4980413;28;20038;-86
2022/01/04 11:32:25;;;;;;;21.77;20.70;;;;;;;;;;4981065;28;20097;-85
2022/01/04 11:34:51;;;;;;;115.55;107.85;;;;;;;;;;4980902;28;20041;-86
2022/01/04 11:37:22;;;;;;;24.57;23.30;;;;;;;;;;4983223;28;20041;-85
2022/01/04 11:39:51;;;;;;;145.80;137.88;;;;;;;;;;4981766;28;20034;-85
2022/01/04 11:42:34;;;;;;;122.63;114.30;;;;;;;;;;4980420;28;20529;-86
2022/01/04 11:45:01;;;;;;;162.65;153.77;;;;;;;;;;4979851;28;20833;-85
2022/01/04 11:47:34;;;;;;;334.38;311.23;;;;;;;;;;4980076;28;20050;-85
2022/01/04 11:50:13;;;;;;;280.67;265.10;;;;;;;;;;4980339;28;20145;-85
2022/01/04 11:52:41;;;;;;;169.65;160.32;;;;;;;;;;4965183;28;20036;-86
2022/01/04 11:55:18;;;;;;;71.63;67.28;;;;;;;;;;4979376;28;20023;-85
2022/01/04 11:57:43;;;;;;;;;;;;;;;;;;4983132;28;20038;-85
2022/01/04 12:00:10;;;;;;;39.75;37.67;;;;;;;;;;4979818;28;20354;-86
2022/01/04 12:02:38;;;;;;;138.43;126.15;;;;;;;;;;4980295;28;20038;-86
2022/01/04 12:05:13;;;;;;;0.00;0.00;;;;;;;;;;4982476;28;20109;-85
2022/01/04 12:07:39;;;;;;;0.00;0.00;;;;;;;;;;4968413;28;20036;-86
2022/01/04 12:10:20;;;;;;;0.00;0.00;;;;;;;;;;4987055;28;20513;-85
2022/01/04 12:12:56;;;;;;;0.03;0.03;;;;;;;;;;4986452;28;20146;-86
2022/01/04 12:15:34;;;;;;;0.98;0.98;;;;;;;;;;4983427;28;20110;-86
2022/01/04 12:18:00;;;;;;;0.10;0.10;;;;;;;;;;4983602;28;20061;-86
2022/01/04 12:20:41;;;;;;;0.22;0.22;;;;;;;;;;4983319;28;20529;-86
2022/01/04 12:23:26;;;;;;;0.15;0.15;;;;;;;;;;4983877;28;20030;-85
2022/01/04 12:26:04;;;;;;;0.55;0.55;;;;;;;;;;4969143;28;20035;-85
2022/01/04 12:28:33;;;;;;;0.60;0.60;;;;;;;;;;4982706;28;20092;-85
2022/01/04 12:31:18;;;;;;;0.10;0.10;;;;;;;;;;5000533;28;20027;-86
2022/01/04 12:33:44;;;;;;;0.20;0.20;;;;;;;;;;4985956;28;20037;-86
2022/01/04 12:36:11;;;;;;;0.30;0.30;;;;;;;;;;4983695;28;20108;-85
2022/01/04 12:38:37;;;;;;;;;;;;;;;;;;4983733;28;20042;-85
2022/01/04 12:41:06;;;;;;;0.90;0.90;;;;;;;;;;4983344;28;19921;-86
2022/01/04 12:43:32;;;;;;;0.10;0.10;;;;;;;;;;4982270;28;20046;-85
2022/01/04 12:45:58;;;;;;;0.10;0.10;;;;;;;;;;4985370;28;20458;-86
2022/01/04 12:48:47;;;;;;;0.10;0.10;;;;;;;;;;4982915;28;20273;-85
2022/01/04 12:51:25;;;;;;;1.17;1.17;;;;;;;;;;4983028;28;20097;-85
2022/01/04 12:53:52;;;;;;;0.10;0.10;;;;;;;;;;4983344;28;20827;-86
2022/01/04 12:56:18;;;;;;;0.20;0.20;;;;;;;;;;4984492;28;20022;-85
2022/01/04 12:58:44;;;;;;;0.10;0.10;;;;;;;;;;4982835;28;20050;-85
2022/01/04 13:01:11;;;;;;;0.10;0.10;;;;;;;;;;4985117;28;20141;-85
2022/01/04 13:03:38;;;;;;;0.55;0.55;;;;;;;;;;4985066;28;20034;-85
2022/01/04 13:06:04;;;;;;;;;;;;;;;;;;4983505;28;20030;-85
2022/01/04 13:08:35;;;;;;;0.40;0.40;;;;;;;;;;4982775;28;20689;-84
2022/01/04 13:11:09;;;;;;;0.10;0.10;;;;;;;;;;4982245;28;20038;-85
2022/01/04 13:13:36;;;;;;;0.82;0.82;;;;;;;;;;4983723;28;20089;-86
2022/01/04 13:16:20;;;;;;;0.43;0.43;;;;;;;;;;4984913;28;20030;-85
2022/01/04 13:18:48;;;;;;;0.10;0.10;;;;;;;;;;4985669;28;20537;-85
2022/01/04 13:21:14;;;;;;;0.50;0.50;;;;;;;;;;4982633;28;20042;-86
2022/01/04 13:23:45;;;;;;;0.60;0.60;;;;;;;;;;4982350;28;20709;-86
2022/01/04 13:26:11;;;;;;;0.10;0.10;;;;;;;;;;4982060;28;20291;-86
2022/01/04 13:28:38;;;;;;;0.10;0.10;;;;;;;;;;4982902;28;20031;-85
2022/01/04 13:31:04;;;;;;;;;;;;;;;;;;5001072;28;20034;-85
2022/01/04 13:33:32;;;;;;;0.47;0.47;;;;;;;;;;4976516;28;19917;-85
2022/01/04 13:35:59;;;;;;;0.38;0.38;;;;;;;;;;4982346;28;20038;-87
2022/01/04 13:38:26;;;;;;;0.63;0.63;;;;;;;;;;4983333;28;20610;-85
2022/01/04 13:40:55;;;;;;;0.10;0.10;;;;;;;;;;4982046;28;20043;-86
2022/01/04 13:43:36;;;;;;;0.40;0.40;;;;;;;;;;4983280;28;20464;-86
2022/01/04 13:46:09;;;;;;;0.30;0.30;;;;;;;;;;4985178;28;20038;-85
2022/01/04 13:48:38;;;;;;;0.20;0.20;;;;;;;;;;4982247;28;20509;-86
2022/01/04 13:51:15;;;;;;;0.20;0.20;;;;;;;;;;4982220;28;20033;-85
2022/01/04 13:53:45;;;;;;;0.30;0.30;;;;;;;;;;4982258;28;20042;-86
2022/01/04 13:56:12;;;;;;;0.10;0.10;;;;;;;;;;4982165;28;20022;-85
2022/01/04 13:58:40;;;;;;;0.20;0.20;;;;;;;;;;4967064;28;20027;-85
2022/01/04 14:01:27;;;;;;;0.10;0.10;;;;;;;;;;4985106;28;20034;-86
2022/01/04 14:03:55;;;;;;;1999.90;999.90;;;;;;;;;;4983277;28;20387;-85
2022/01/04 14:06:28;;;;;;;120.68;38.35;;;;;;;;;;4981523;28;20076;-85
2022/01/04 14:08:54;;;;;;;619.40;360.60;;;;;;;;;;4983959;28;20701;-86
2022/01/04 14:11:23;;;;;;;1999.90;999.90;;;;;;;;;;4981182;28;20027;-85
2022/01/04 14:13:50;;;;;;;1999.90;999.90;;;;;;;;;;4980876;28;20097;-84
2022/01/04 14:16:17;;;;;;;1999.90;999.90;;;;;;;;;;4984152;28;20022;-85
2022/01/04 14:19:02;;;;;;;1999.90;999.90;;;;;;;;;;4983963;28;20121;-86
2022/01/04 14:21:40;;;;;;;79.60;74.13;;;;;;;;;;4981317;28;20028;-85
2022/01/04 14:24:25;;;;;;;414.15;377.55;;;;;;;;;;4980524;28;20045;-85
2022/01/04 14:26:51;;;;;;;199.27;185.75;;;;;;;;;;4980996;28;20034;-85
2022/01/04 14:29:31;;;;;;;195.10;178.37;;;;;;;;;;4981183;28;20505;-85
2022/01/04 14:32:04;;;;;;;2.85;2.75;;;;;;;;;;4981105;28;20055;-85
2022/01/04 14:34:30;;;;;;;65.82;61.47;;;;;;;;;;4982642;28;20026;-85
2022/01/04 14:36:58;;;;;;;0.13;0.13;;;;;;;;;;4983030;28;20594;-85
2022/01/04 14:39:25;;;;;;;16.33;4.68;;;;;;;;;;4982560;28;20042;-86
2022/01/04 14:41:51;;;;;;;0.28;0.28;;;;;;;;;;4982329;28;20030;-85
2022/01/04 14:44:17;;;;;;;0.30;0.30;;;;;;;;;;4981277;28;20054;-85
2022/01/04 14:46:43;;;;;;;3.53;3.43;;;;;;;;;;4982571;28;20037;-85
2022/01/04 14:49:09;;;;;;;0.90;0.35;;;;;;;;;;4984570;28;20036;-86
2022/01/04 14:51:36;;;;;;;1.50;1.47;;;;;;;;;;4981118;28;20031;-85
2022/01/04 14:54:02;;;;;;;0.30;0.30;;;;;;;;;;4981744;28;20929;-86
2022/01/04 14:56:28;;;;;;;1.47;1.47;;;;;;;;;;4980820;28;20030;-85
2022/01/04 14:58:54;;;;;;;0.20;0.20;;;;;;;;;;4980309;28;20046;-84